Matsumaru No.12 — JI3645 — position and weather

sailwx.info

Track history (hours):
 
Tides and Currents Weather Stations Pressure Air Temp Water Temp Dewpoint Dewpoint Depression Visibility Wind Speed Wind Dir Waves Ship Positions

Matsumaru No.12

Last reported at 2017-Nov-19 06:54 UTC. Time now 2017-Nov-19 21:47 UTC.
Position N 34°37' E 134°57'.

Length 85 m; draft 6.2 m.

Type: Tanker. MMSI: 431300697.

Date/timePositionNaut miles runAvg speedWind from/ knotsBaromVisibWave heightAir tempDewpointWater temp
2017-Nov-19 06:54N 34°37' E 134°57'5 8.2
2017-Nov-19 06:14N 34°36' E 135°03'2 8.1
2017-Nov-19 06:00N 34°35' E 135°05'610.7
2017-Nov-19 05:29N 34°29' E 135°04'1510.9
2017-Nov-19 04:05N 34°15' E 134°60'311.0
2017-Nov-19 03:49N 34°12' E 135°00'411.4
2017-Nov-19 03:29N 34°08' E 135°01'711.1
2017-Nov-19 02:48N 34°00' E 135°01'  
2017-Nov-16 09:09N 34°60' E 139°28'313.5
2017-Nov-16 08:57N 35°01' E 139°31'613.1
2017-Nov-16 08:30N 35°03' E 139°37'613.1
2017-Nov-16 08:00N 35°07' E 139°44'714.0
2017-Nov-16 07:30N 35°13' E 139°46'613.1
2017-Nov-16 07:01N 35°19' E 139°43'713.0
2017-Nov-16 06:30N 35°26' E 139°44'714.5
2017-Nov-16 06:00N 35°30' E 139°52'7 1.3
2017-Nov-16 00:35N 35°31' E 139°60'112.1
2017-Nov-16 00:30N 35°31' E 139°59'611.5
2017-Nov-16 00:00N 35°29' E 139°52'611.8
2017-Nov-15 23:30N 35°25' E 139°47'611.4
2017-Nov-15 23:00N 35°20' E 139°44'510.7
2017-Nov-15 22:30N 35°15' E 139°47'612.0
2017-Nov-15 22:00N 35°09' E 139°46'611.9
2017-Nov-15 21:30N 35°03' E 139°43'612.5
2017-Nov-15 21:00N 34°60' E 139°36'612.6
2017-Nov-15 20:30N 34°56' E 139°30'  
2017-Nov-12 22:28N 34°35' E 135°25'2 4.9
2017-Nov-12 21:59N 34°36' E 135°23'1 1.2
2017-Nov-12 21:26N 34°36' E 135°23'0 0.0
2017-Nov-12 20:44N 34°36' E 135°23'0 0.1
2017-Nov-12 20:26N 34°36' E 135°23'0 0.0
2017-Nov-12 19:56N 34°36' E 135°23'0 0.0
2017-Nov-12 19:20N 34°36' E 135°23'0 0.0
2017-Nov-12 18:14N 34°36' E 135°23'0 0.0
2017-Nov-12 17:50N 34°36' E 135°23'0 0.0
2017-Nov-12 17:20N 34°36' E 135°23'0 0.0
2017-Nov-12 16:50N 34°36' E 135°23'0 0.0
2017-Nov-12 16:20N 34°36' E 135°23'0 0.0
2017-Nov-12 15:56N 34°36' E 135°23'0 0.0
2017-Nov-12 15:26N 34°36' E 135°23'0 0.0
2017-Nov-12 14:50N 34°36' E 135°23'0 0.0
2017-Nov-12 14:26N 34°36' E 135°23'0 0.0
2017-Nov-12 13:56N 34°36' E 135°23'0 0.0
2017-Nov-12 13:20N 34°36' E 135°23'0 0.0
2017-Nov-12 12:56N 34°36' E 135°23'0 0.0
2017-Nov-12 12:26N 34°36' E 135°23'0 0.1
2017-Nov-12 11:44N 34°36' E 135°23'0 0.0
2017-Nov-12 11:14N 34°36' E 135°23'0 0.0
2017-Nov-12 10:50N 34°36' E 135°23'0 0.0
2017-Nov-12 10:26N 34°36' E 135°23'0 0.1
2017-Nov-12 09:56N 34°36' E 135°23'1 1.5
2017-Nov-12 09:29N 34°36' E 135°23'3 5.6
2017-Nov-12 09:00N 34°35' E 135°26'0 0.0
2017-Nov-12 03:10N 34°35' E 135°26'0 2.6
2017-Nov-12 03:00N 34°35' E 135°25'4 7.2
2017-Nov-12 02:30N 34°35' E 135°21'612.1
2017-Nov-12 02:00N 34°31' E 135°16'611.8
2017-Nov-12 01:29N 34°27' E 135°11'1411.1
2017-Nov-12 00:14N 34°16' E 134°59'210.0
2017-Nov-12 00:01N 34°14' E 134°59'510.8
2017-Nov-11 23:30N 34°09' E 134°59'611.0
2017-Nov-11 22:59N 34°03' E 135°01'228 5.9
2017-Nov-10 08:34N 35°00' E 139°29'111.8
2017-Nov-10 08:30N 35°00' E 139°30'612.1
2017-Nov-10 08:00N 35°03' E 139°36'612.3
2017-Nov-10 07:30N 35°06' E 139°43'612.8
2017-Nov-10 07:00N 35°12' E 139°46'511.0
2017-Nov-10 06:30N 35°17' E 139°45'611.3
2017-Nov-10 06:00N 35°22' E 139°42'611.7
2017-Nov-10 05:30N 35°27' E 139°47'712.6
2017-Nov-10 04:58N 35°31' E 139°54'7 1.5
2017-Nov-09 23:58N 35°32' E 140°03'0 0.7
2017-Nov-09 23:25N 35°32' E 140°02'  
Track history (hours):
 
Tides and Currents Weather Stations Pressure Air Temp Water Temp Dewpoint Dewpoint Depression Visibility Wind Speed Wind Dir Waves Ship Positions

Matsumaru No.12

Last reported at 2017-Nov-19 06:54 UTC. Time now 2017-Nov-19 21:47 UTC.
Position N 34°37' E 134°57'.

Length 85 m; draft 6.2 m.

Type: Tanker. MMSI: 431300697.

Date/timePositionNaut miles runAvg speedWind from/ knotsBaromVisibWave heightAir tempDewpointWater temp
2017-Nov-19 06:54N 34°37' E 134°57'5 8.2
2017-Nov-19 06:14N 34°36' E 135°03'2 8.1
2017-Nov-19 06:00N 34°35' E 135°05'610.7
2017-Nov-19 05:29N 34°29' E 135°04'1510.9
2017-Nov-19 04:05N 34°15' E 134°60'311.0
2017-Nov-19 03:49N 34°12' E 135°00'411.4
2017-Nov-19 03:29N 34°08' E 135°01'711.1
2017-Nov-19 02:48N 34°00' E 135°01'  
2017-Nov-16 09:09N 34°60' E 139°28'313.5
2017-Nov-16 08:57N 35°01' E 139°31'613.1
2017-Nov-16 08:30N 35°03' E 139°37'613.1
2017-Nov-16 08:00N 35°07' E 139°44'714.0
2017-Nov-16 07:30N 35°13' E 139°46'613.1
2017-Nov-16 07:01N 35°19' E 139°43'713.0
2017-Nov-16 06:30N 35°26' E 139°44'714.5
2017-Nov-16 06:00N 35°30' E 139°52'7 1.3
2017-Nov-16 00:35N 35°31' E 139°60'112.1
2017-Nov-16 00:30N 35°31' E 139°59'611.5
2017-Nov-16 00:00N 35°29' E 139°52'611.8
2017-Nov-15 23:30N 35°25' E 139°47'611.4
2017-Nov-15 23:00N 35°20' E 139°44'510.7
2017-Nov-15 22:30N 35°15' E 139°47'612.0
2017-Nov-15 22:00N 35°09' E 139°46'611.9
2017-Nov-15 21:30N 35°03' E 139°43'612.5
2017-Nov-15 21:00N 34°60' E 139°36'612.6
2017-Nov-15 20:30N 34°56' E 139°30'  
2017-Nov-12 22:28N 34°35' E 135°25'2 4.9
2017-Nov-12 21:59N 34°36' E 135°23'1 1.2
2017-Nov-12 21:26N 34°36' E 135°23'0 0.0
2017-Nov-12 20:44N 34°36' E 135°23'0 0.1
2017-Nov-12 20:26N 34°36' E 135°23'0 0.0
2017-Nov-12 19:56N 34°36' E 135°23'0 0.0
2017-Nov-12 19:20N 34°36' E 135°23'0 0.0
2017-Nov-12 18:14N 34°36' E 135°23'0 0.0
2017-Nov-12 17:50N 34°36' E 135°23'0 0.0
2017-Nov-12 17:20N 34°36' E 135°23'0 0.0
2017-Nov-12 16:50N 34°36' E 135°23'0 0.0
2017-Nov-12 16:20N 34°36' E 135°23'0 0.0
2017-Nov-12 15:56N 34°36' E 135°23'0 0.0
2017-Nov-12 15:26N 34°36' E 135°23'0 0.0
2017-Nov-12 14:50N 34°36' E 135°23'0 0.0
2017-Nov-12 14:26N 34°36' E 135°23'0 0.0
2017-Nov-12 13:56N 34°36' E 135°23'0 0.0
2017-Nov-12 13:20N 34°36' E 135°23'0 0.0
2017-Nov-12 12:56N 34°36' E 135°23'0 0.0
2017-Nov-12 12:26N 34°36' E 135°23'0 0.1
2017-Nov-12 11:44N 34°36' E 135°23'0 0.0
2017-Nov-12 11:14N 34°36' E 135°23'0 0.0
2017-Nov-12 10:50N 34°36' E 135°23'0 0.0
2017-Nov-12 10:26N 34°36' E 135°23'0 0.1
2017-Nov-12 09:56N 34°36' E 135°23'1 1.5
2017-Nov-12 09:29N 34°36' E 135°23'3 5.6
2017-Nov-12 09:00N 34°35' E 135°26'0 0.0
2017-Nov-12 03:10N 34°35' E 135°26'0 2.6
2017-Nov-12 03:00N 34°35' E 135°25'4 7.2
2017-Nov-12 02:30N 34°35' E 135°21'612.1
2017-Nov-12 02:00N 34°31' E 135°16'611.8
2017-Nov-12 01:29N 34°27' E 135°11'1411.1
2017-Nov-12 00:14N 34°16' E 134°59'210.0
2017-Nov-12 00:01N 34°14' E 134°59'510.8
2017-Nov-11 23:30N 34°09' E 134°59'611.0
2017-Nov-11 22:59N 34°03' E 135°01'228 5.9
2017-Nov-10 08:34N 35°00' E 139°29'111.8
2017-Nov-10 08:30N 35°00' E 139°30'612.1
2017-Nov-10 08:00N 35°03' E 139°36'612.3
2017-Nov-10 07:30N 35°06' E 139°43'612.8
2017-Nov-10 07:00N 35°12' E 139°46'511.0
2017-Nov-10 06:30N 35°17' E 139°45'611.3
2017-Nov-10 06:00N 35°22' E 139°42'611.7
2017-Nov-10 05:30N 35°27' E 139°47'712.6
2017-Nov-10 04:58N 35°31' E 139°54'7 1.5
2017-Nov-09 23:58N 35°32' E 140°03'0 0.7
2017-Nov-09 23:25N 35°32' E 140°02'  

Dump ship's entire track history